Time;durP1;ratioP1;P1;durP2;ratioP2;P2;SDS_P1;SDS_P2;PMS_P1;PMS_P2;Temp;Humidity;BMP_temperature;BMP_pressure;BME280_temperature;BME280_humidity;BME280_pressure;Samples;Min_cycle;Max_cycle;Signal;HPM_P1;HPM_P2
2024/01/06 00:00:01;;;;;;;;;;;;;;;6.25;73.59;96739.66;5104500;28;19926;-61
2024/01/06 00:02:58;;;;;;;;;;;;;;;6.25;73.59;96742.38;5102548;28;19920;-61
2024/01/06 00:05:46;;;;;;;;;;;;;;;6.23;73.70;96744.59;5099945;28;19920;-61
2024/01/06 00:08:34;;;;;;;;;;;;;;;6.30;73.63;96755.72;5102770;28;19932;-61
2024/01/06 00:11:24;;;;;;;;;;;;;;;6.39;73.37;96757.63;5104728;27;19920;-61
2024/01/06 00:14:12;;;;;;;;;;;;;;;6.42;72.88;96754.31;5103135;28;19920;-61
2024/01/06 00:17:00;;;;;;;;;;;;;;;6.45;72.75;96764.50;5101550;28;19935;-61
2024/01/06 00:19:51;;;;;;;;;;;;;;;6.50;72.58;96764.38;5103368;28;19966;-61
2024/01/06 00:22:41;;;;;;;;;;;;;;;6.51;72.39;96760.56;5084407;28;19920;-61
2024/01/06 00:25:30;;;;;;;;;;;;;;;6.38;72.86;96758.75;5104020;27;19950;-61
2024/01/06 00:28:19;;;;;;;;;;;;;;;5.97;73.95;96759.84;5096922;27;19924;-61
2024/01/06 00:31:07;;;;;;;;;;;;;;;5.82;75.05;96761.00;5093261;28;20003;-62
2024/01/06 00:33:55;;;;;;;;;;;;;;;5.59;75.83;96760.22;5097303;27;19931;-61
2024/01/06 00:36:43;;;;;;;;;;;;;;;5.44;76.67;96771.38;5102779;27;19924;-61
2024/01/06 00:39:32;;;;;;;;;;;;;;;5.37;76.97;96760.22;5102301;27;19962;-61
2024/01/06 00:42:20;;;;;;;;;;;;;;;5.44;76.82;96763.28;5092168;27;20011;-61
2024/01/06 00:45:11;;;;;;;;;;;;;;;5.28;77.58;96765.56;5106415;27;19927;-61
2024/01/06 00:47:59;;;;;;;;;;;;;;;5.51;76.61;96771.75;5101455;27;19928;-61
2024/01/06 00:50:47;;;;;;;;;;;;;;;5.63;75.62;96763.09;5099926;27;19947;-60
2024/01/06 00:53:35;;;;;;;;;;;;;;;5.82;75.69;96776.38;5093815;28;20016;-60
2024/01/06 00:56:23;;;;;;;;;;;;;;;5.90;75.04;96773.72;5097874;27;19920;-60
2024/01/06 00:59:12;;;;;;;;;;;;;;;5.92;74.84;96778.84;5104178;28;19920;-60
2024/01/06 01:02:01;;;;;;;;;;;;;;;6.02;74.59;96773.22;5101502;28;19927;-61
2024/01/06 01:04:49;;;;;;;;;;;;;;;5.95;74.17;96780.91;5094501;27;19920;-61
2024/01/06 01:07:37;;;;;;;;;;;;;;;6.08;73.64;96780.06;5100405;28;19920;-60
2024/01/06 01:10:25;;;;;;;;;;;;;;;5.72;75.30;96778.22;5099176;28;20452;-60
2024/01/06 01:13:13;;;;;;;;;;;;;;;5.55;75.50;96780.81;5107647;28;20023;-60
2024/01/06 01:16:02;;;;;;;;;;;;;;;5.63;75.33;96782.75;5096870;28;20402;-60
2024/01/06 01:18:52;;;;;;;;;;;;;;;5.76;75.38;96790.00;5105478;28;19927;-60
2024/01/06 01:21:40;;;;;;;;;;;;;;;5.92;74.49;96792.34;5096700;28;19927;-61
2024/01/06 01:24:28;;;;;;;;;;;;;;;5.86;74.79;96797.03;5102930;28;19959;-61
2024/01/06 01:27:16;;;;;;;;;;;;;;;5.88;74.56;96786.72;5099999;28;19920;-61
2024/01/06 01:30:05;;;;;;;;;;;;;;;5.85;74.91;96797.31;5103716;28;19920;-62
2024/01/06 01:32:53;;;;;;;;;;;;;;;5.72;75.20;96804.38;5099253;28;20735;-61
2024/01/06 01:35:43;;;;;;;;;;;;;;;5.58;75.48;96799.03;5101145;28;19920;-61
2024/01/06 01:38:31;;;;;;;;;;;;;;;5.52;75.75;96794.88;5096574;28;20384;-61
2024/01/06 01:41:20;;;;;;;;;;;;;;;5.29;76.50;96790.59;5100287;28;19924;-62
2024/01/06 01:44:08;;;;;;;;;;;;;;;5.18;76.83;96798.88;5098268;28;19926;-61
2024/01/06 01:46:56;;;;;;;;;;;;;;;5.33;76.78;96794.25;5117182;28;19926;-61
2024/01/06 01:49:47;;;;;;;;;;;;;;;5.40;76.50;96800.03;5098461;28;19928;-61
2024/01/06 01:52:37;;;;;;;;;;;;;;;5.30;76.75;96792.97;5101004;28;19927;-61
2024/01/06 01:55:25;;;;;;;;;;;;;;;5.42;76.46;96795.91;5106525;27;20048;-61
2024/01/06 01:58:13;;;;;;;;;;;;;;;5.62;75.99;96797.31;5107504;27;20268;-61
2024/01/06 02:01:03;;;;;;;;;;;;;;;5.74;75.00;96794.06;5105464;27;20002;-61
2024/01/06 02:03:51;;;;;;;;;;;;;;;5.83;75.25;96794.16;5105516;27;19935;-61
2024/01/06 02:06:39;;;;;;;;;;;;;;;5.71;75.56;96792.81;5100432;27;19924;-61
2024/01/06 02:09:29;;;;;;;;;;;;;;;5.62;75.58;96791.94;5109554;27;19926;-62
2024/01/06 02:12:17;;;;;;;;;;;;;;;5.50;75.94;96792.50;5108416;27;19967;-61
2024/01/06 02:15:05;;;;;;;;;;;;;;;5.76;74.78;96794.59;5100304;27;20011;-61
2024/01/06 02:17:54;;;;;;;;;;;;;;;5.66;75.25;96792.94;5096294;27;20305;-61
2024/01/06 02:20:42;;;;;;;;;;;;;;;5.49;75.68;96792.81;5101406;27;19955;-61
2024/01/06 02:23:32;;;;;;;;;;;;;;;5.29;76.80;96790.59;5084134;27;20288;-61
2024/01/06 02:26:20;;;;;;;;;;;;;;;5.35;76.48;96790.16;5098773;28;20356;-61
2024/01/06 02:29:08;;;;;;;;;;;;;;;5.16;77.24;96784.13;5101736;27;19920;-61
2024/01/06 02:31:56;;;;;;;;;;;;;;;5.37;76.58;96789.84;5078252;28;19927;-61
2024/01/06 02:34:44;;;;;;;;;;;;;;;5.60;75.67;96791.47;5082507;28;20281;-61
2024/01/06 02:37:32;;;;;;;;;;;;;;;5.30;76.65;96792.16;5099383;28;19920;-61
2024/01/06 02:40:21;;;;;;;;;;;;;;;5.58;75.67;96793.66;5103624;27;19988;-61
2024/01/06 02:43:10;;;;;;;;;;;;;;;5.53;75.67;96794.56;5098063;27;19927;-61
2024/01/06 02:45:58;;;;;;;;;;;;;;;5.36;75.71;96793.63;5103459;28;20377;-61
2024/01/06 02:48:46;;;;;;;;;;;;;;;5.46;76.03;96798.78;5103722;27;20517;-61
2024/01/06 02:51:35;;;;;;;;;;;;;;;5.66;75.18;96802.91;5094950;27;19927;-61
2024/01/06 02:54:23;;;;;;;;;;;;;;;5.75;74.58;96801.06;5100781;28;19919;-62
2024/01/06 02:57:13;;;;;;;;;;;;;;;5.84;74.39;96806.50;5106496;28;20392;-62
2024/01/06 03:00:01;;;;;;;;;;;;;;;5.79;74.06;96805.53;5099535;27;19938;-65
2024/01/06 03:02:53;;;;;;;;;;;;;;;5.42;75.14;96803.97;5103655;27;20058;-62
2024/01/06 03:05:41;;;;;;;;;;;;;;;5.15;76.23;96815.63;5103338;27;19924;-61
2024/01/06 03:08:29;;;;;;;;;;;;;;;5.27;75.90;96809.72;5108116;27;20015;-60
2024/01/06 03:11:17;;;;;;;;;;;;;;;5.36;75.93;96801.72;5097442;27;19927;-60
2024/01/06 03:14:07;;;;;;;;;;;;;;;5.49;75.46;96807.06;5112533;27;19919;-60
2024/01/06 03:16:55;;;;;;;;;;;;;;;5.51;75.30;96809.44;5106352;27;19946;-60
2024/01/06 03:19:43;;;;;;;;;;;;;;;5.43;75.57;96807.47;5102152;27;19920;-61
2024/01/06 03:22:31;;;;;;;;;;;;;;;5.53;75.33;96818.00;5101559;27;19931;-62
2024/01/06 03:25:19;;;;;;;;;;;;;;;5.61;75.15;96814.59;5109783;27;19932;-60
2024/01/06 03:28:07;;;;;;;;;;;;;;;5.39;75.75;96806.50;5105590;27;19920;-60
2024/01/06 03:30:56;;;;;;;;;;;;;;;5.49;75.20;96817.06;5110530;27;19926;-60
2024/01/06 03:33:45;;;;;;;;;;;;;;;5.53;75.34;96816.13;5103680;27;20366;-59
2024/01/06 03:36:33;;;;;;;;;;;;;;;5.63;74.41;96822.38;5104571;27;19926;-62
2024/01/06 03:39:22;;;;;;;;;;;;;;;5.34;75.47;96812.81;5104022;27;19924;-61
2024/01/06 03:42:10;;;;;;;;;;;;;;;5.59;74.93;96818.69;5122137;27;19926;-61
2024/01/06 03:44:58;;;;;;;;;;;;;;;5.71;74.54;96818.97;5086275;27;19920;-61
2024/01/06 03:47:47;;;;;;;;;;;;;;;5.26;75.57;96819.69;5112396;27;19927;-61
2024/01/06 03:50:35;;;;;;;;;;;;;;;5.19;76.05;96827.41;5104574;27;19919;-61
2024/01/06 03:53:23;;;;;;;;;;;;;;;5.31;76.10;96828.75;5102530;27;19931;-61
2024/01/06 03:56:15;;;;;;;;;;;;;;;5.43;75.52;96827.16;5086199;28;19924;-62
2024/01/06 03:59:03;;;;;;;;;;;;;;;5.48;74.63;96828.91;5103142;27;19932;-61
2024/01/06 04:01:51;;;;;;;;;;;;;;;5.65;74.29;96831.75;5095673;27;19931;-61
2024/01/06 04:04:41;;;;;;;;;;;;;;;5.70;74.05;96845.13;5099112;27;19927;-61
2024/01/06 04:07:29;;;;;;;;;;;;;;;5.75;73.35;96845.00;5101472;27;20418;-61
2024/01/06 04:10:17;;;;;;;;;;;;;;;5.77;72.92;96850.88;5111061;27;19923;-61
2024/01/06 04:13:06;;;;;;;;;;;;;;;5.82;72.53;96846.47;5113581;27;20009;-61
2024/01/06 04:15:54;;;;;;;;;;;;;;;5.83;72.35;96858.84;5108976;27;19936;-61
2024/01/06 04:18:43;;;;;;;;;;;;;;;5.86;72.35;96852.81;5104224;27;19939;-61
2024/01/06 04:21:32;;;;;;;;;;;;;;;5.86;72.21;96848.25;5093862;27;19920;-61
2024/01/06 04:24:20;;;;;;;;;;;;;;;5.88;71.63;96856.00;5105952;27;19920;-61
2024/01/06 04:27:09;;;;;;;;;;;;;;;5.60;72.64;96848.03;5114668;27;19940;-61
2024/01/06 04:29:57;;;;;;;;;;;;;;;5.70;72.13;96847.81;5096514;27;19927;-61
2024/01/06 04:32:48;;;;;;;;;;;;;;;5.77;72.05;96850.88;5097971;27;19997;-61
2024/01/06 04:35:36;;;;;;;;;;;;;;;5.77;72.20;96850.06;5102773;27;19920;-61
2024/01/06 04:38:25;;;;;;;;;;;;;;;5.78;72.11;96846.28;5105116;27;19920;-61
2024/01/06 04:41:13;;;;;;;;;;;;;;;5.82;72.13;96852.66;5103984;27;20357;-61
2024/01/06 04:44:01;;;;;;;;;;;;;;;5.86;71.97;96852.81;5105310;27;19994;-61
2024/01/06 04:46:49;;;;;;;;;;;;;;;5.82;71.84;96846.47;5103222;27;20000;-62
2024/01/06 04:49:37;;;;;;;;;;;;;;;5.53;72.72;96839.56;5104945;27;20399;-60
2024/01/06 04:52:26;;;;;;;;;;;;;;;5.74;72.12;96846.06;5081778;28;19924;-62
2024/01/06 04:55:15;;;;;;;;;;;;;;;5.76;72.02;96846.59;5081618;28;19995;-60
2024/01/06 04:58:03;;;;;;;;;;;;;;;5.76;71.85;96848.47;5082426;28;19980;-60
2024/01/06 05:00:52;;;;;;;;;;;;;;;5.79;72.08;96850.56;5081617;28;19928;-60
2024/01/06 05:03:40;;;;;;;;;;;;;;;5.76;72.15;96860.06;5083190;28;19928;-60
2024/01/06 05:06:29;;;;;;;;;;;;;;;5.80;71.72;96857.53;5081571;28;19930;-60
2024/01/06 05:09:17;;;;;;;;;;;;;;;5.84;72.03;96849.63;5077890;28;20321;-60
2024/01/06 05:12:06;;;;;;;;;;;;;;;5.93;71.47;96855.94;5071101;28;19927;-60
2024/01/06 05:14:54;;;;;;;;;;;;;;;6.01;71.52;96861.34;5094617;28;19920;-59
2024/01/06 05:17:43;;;;;;;;;;;;;;;6.07;71.02;96853.94;5094309;28;19924;-62
2024/01/06 05:20:31;;;;;;;;;;;;;;;6.18;70.61;96855.31;5097274;28;19943;-60
2024/01/06 05:23:19;;;;;;;;;;;;;;;6.25;70.39;96854.84;5094447;28;19931;-60
2024/01/06 05:26:07;;;;;;;;;;;;;;;6.26;70.28;96859.94;5098445;28;20057;-61
2024/01/06 05:28:57;;;;;;;;;;;;;;;6.34;69.62;96857.59;5094734;28;19922;-67
2024/01/06 05:31:47;;;;;;;;;;;;;;;6.44;69.25;96862.72;5097307;27;19920;-61
2024/01/06 05:34:35;;;;;;;;;;;;;;;6.51;68.48;96866.59;5097803;27;20259;-71
2024/01/06 05:37:23;;;;;;;;;;;;;;;6.39;68.88;96870.94;5103237;28;19924;-61
2024/01/06 05:40:11;;;;;;;;;;;;;;;6.51;68.99;96884.69;5110029;28;20025;-60
2024/01/06 05:42:59;;;;;;;;;;;;;;;6.52;68.72;96883.56;5100167;28;20268;-60
2024/01/06 05:45:49;;;;;;;;;;;;;;;6.50;68.31;96880.38;5094138;28;19931;-60
2024/01/06 05:48:37;;;;;;;;;;;;;;;6.58;67.89;96890.41;5100040;28;19920;-60
2024/01/06 05:51:25;;;;;;;;;;;;;;;6.50;67.84;96897.38;5108307;28;19919;-59
2024/01/06 05:54:16;;;;;;;;;;;;;;;6.56;68.11;96898.03;5105297;28;20502;-60
2024/01/06 05:57:04;;;;;;;;;;;;;;;6.53;67.83;96904.03;5097737;28;19920;-62
2024/01/06 05:59:53;;;;;;;;;;;;;;;6.44;68.38;96901.28;5107007;28;20372;-60
2024/01/06 06:02:42;;;;;;;;;;;;;;;6.34;68.39;96911.53;5097704;28;19920;-61
2024/01/06 06:05:30;;;;;;;;;;;;;;;6.44;68.00;96911.28;5099622;28;19920;-61
2024/01/06 06:08:19;;;;;;;;;;;;;;;6.40;68.21;96915.72;5106602;28;19930;-59
2024/01/06 06:11:10;;;;;;;;;;;;;;;6.27;68.62;96917.38;5095610;28;19928;-59
2024/01/06 06:13:58;;;;;;;;;;;;;;;6.32;68.69;96913.75;5101100;28;20258;-60
2024/01/06 06:16:47;;;;;;;;;;;;;;;6.38;68.10;96920.63;5081872;28;20330;-60
2024/01/06 06:19:37;;;;;;;;;;;;;;;6.34;68.34;96933.94;5076665;28;19919;-60
2024/01/06 06:22:26;;;;;;;;;;;;;;;6.39;68.31;96935.69;5076542;28;20391;-60
2024/01/06 06:25:14;;;;;;;;;;;;;;;6.37;68.35;96944.09;5079632;28;19947;-60
2024/01/06 06:28:03;;;;;;;;;;;;;;;6.41;68.31;96950.47;5107382;28;19935;-60
2024/01/06 06:30:51;;;;;;;;;;;;;;;6.38;67.89;96950.28;5098951;28;19920;-63
2024/01/06 06:33:40;;;;;;;;;;;;;;;6.32;67.99;96960.41;5114686;28;20060;-61
2024/01/06 06:36:30;;;;;;;;;;;;;;;6.24;68.41;96966.56;5111672;27;19927;-60
2024/01/06 06:39:18;;;;;;;;;;;;;;;6.42;67.63;96968.25;5106685;27;19931;-60
2024/01/06 06:42:06;;;;;;;;;;;;;;;6.38;67.63;96961.88;5110299;27;20049;-59
2024/01/06 06:44:54;;;;;;;;;;;;;;;6.44;67.71;96966.03;5103238;27;19924;-60
2024/01/06 06:47:42;;;;;;;;;;;;;;;6.41;67.74;96965.88;5100863;27;19929;-59
2024/01/06 06:50:30;;;;;;;;;;;;;;;6.60;66.92;96966.44;5101206;27;20025;-59
2024/01/06 06:53:20;;;;;;;;;;;;;;;6.61;66.82;96969.97;5105492;27;20261;-60
2024/01/06 06:56:08;;;;;;;;;;;;;;;6.65;66.42;96976.34;5104141;27;19926;-59
2024/01/06 06:58:56;;;;;;;;;;;;;;;6.70;66.15;96977.00;5101325;27;20016;-60
2024/01/06 07:01:45;;;;;;;;;;;;;;;6.71;66.07;96978.63;5108303;27;19923;-60
2024/01/06 07:04:33;;;;;;;;;;;;;;;6.70;65.83;96982.41;5100412;27;19939;-60
2024/01/06 07:07:21;;;;;;;;;;;;;;;6.77;65.58;96985.47;5106077;27;19926;-60
2024/01/06 07:10:10;;;;;;;;;;;;;;;6.76;65.90;96978.47;5105809;27;19919;-59
2024/01/06 07:12:58;;;;;;;;;;;;;;;6.74;65.70;96977.97;5100950;27;20022;-61
2024/01/06 07:15:47;;;;;;;;;;;;;;;6.67;65.85;96984.94;5107445;27;19927;-60
2024/01/06 07:18:35;;;;;;;;;;;;;;;6.65;65.77;96990.63;5098126;27;20372;-59
2024/01/06 07:21:24;;;;;;;;;;;;;;;6.66;65.80;96996.81;5109192;27;19955;-59
2024/01/06 07:24:13;;;;;;;;;;;;;;;6.65;65.81;97008.72;5098596;28;20295;-59
2024/01/06 07:27:04;;;;;;;;;;;;;;;6.68;65.68;97008.13;5101095;27;20364;-60
2024/01/06 07:29:52;;;;;;;;;;;;;;;6.68;65.90;97019.72;5105071;27;19924;-60
2024/01/06 07:32:40;;;;;;;;;;;;;;;6.61;66.14;97005.84;5099033;28;20015;-61
2024/01/06 07:35:28;;;;;;;;;;;;;;;6.62;66.42;97012.84;5103269;27;19939;-60
2024/01/06 07:38:16;;;;;;;;;;;;;;;6.63;66.00;97014.44;5097441;28;19927;-59
2024/01/06 07:41:05;;;;;;;;;;;;;;;6.61;65.92;97013.94;5107560;28;19985;-60
2024/01/06 07:43:54;;;;;;;;;;;;;;;6.61;65.77;97019.34;5112169;28;19985;-60
2024/01/06 07:46:42;;;;;;;;;;;;;;;6.60;66.04;97020.44;5103326;28;20000;-60
2024/01/06 07:49:31;;;;;;;;;;;;;;;6.59;65.85;97018.84;5106829;28;20380;-59
2024/01/06 07:52:19;;;;;;;;;;;;;;;6.59;65.91;97021.53;5098308;27;19920;-60
2024/01/06 07:55:08;;;;;;;;;;;;;;;6.60;65.65;97022.34;5110668;27;20395;-60
2024/01/06 07:57:56;;;;;;;;;;;;;;;6.51;66.36;97036.56;5110290;27;19919;-61
2024/01/06 08:00:46;;;;;;;;;;;;;;;6.26;67.42;97037.94;5101419;27;19951;-60
2024/01/06 08:03:34;;;;;;;;;;;;;;;6.46;67.16;97042.09;5107766;27;19923;-59
2024/01/06 08:06:22;;;;;;;;;;;;;;;6.16;67.83;97035.47;5107501;27;19927;-61
2024/01/06 08:09:10;;;;;;;;;;;;;;;6.19;68.70;97042.19;5104407;27;19926;-60
2024/01/06 08:11:58;;;;;;;;;;;;;;;6.35;68.12;97045.34;5102879;27;20039;-59
2024/01/06 08:14:46;;;;;;;;;;;;;;;6.41;67.35;97055.69;5107257;27;19953;-59
2024/01/06 08:17:36;;;;;;;;;;;;;;;6.39;66.81;97055.22;5101563;27;19920;-59
2024/01/06 08:20:24;;;;;;;;;;;;;;;6.42;66.94;97051.88;5107569;27;20017;-60
2024/01/06 08:23:12;;;;;;;;;;;;;;;6.47;66.72;97046.38;5104159;27;20379;-60
2024/01/06 08:26:00;;;;;;;;;;;;;;;6.52;66.72;97045.47;5099405;27;20366;-60
2024/01/06 08:28:48;;;;;;;;;;;;;;;6.41;66.56;97058.41;5103631;27;19920;-61
2024/01/06 08:31:37;;;;;;;;;;;;;;;6.54;66.50;97057.53;5095218;27;19928;-60
2024/01/06 08:34:27;;;;;;;;;;;;;;;6.66;66.06;97059.72;5099693;27;19926;-60
2024/01/06 08:37:18;;;;;;;;;;;;;;;6.51;66.39;97071.66;5108012;27;19926;-60
2024/01/06 08:40:07;;;;;;;;;;;;;;;6.47;66.51;97072.56;5100309;27;20002;-61
2024/01/06 08:42:55;;;;;;;;;;;;;;;6.03;68.54;97074.06;5101538;27;19919;-61
2024/01/06 08:45:43;;;;;;;;;;;;;;;6.34;67.33;97060.72;5095133;28;19959;-61
2024/01/06 08:48:31;;;;;;;;;;;;;;;6.52;66.66;97069.75;5101764;27;19920;-61
2024/01/06 08:51:26;;;;;;;;;;;;;;;6.12;68.03;97069.53;5104156;27;20929;-60
2024/01/06 08:54:14;;;;;;;;;;;;;;;6.28;67.74;97073.53;5104696;27;19919;-60
2024/01/06 08:57:02;;;;;;;;;;;;;;;6.42;67.15;97080.78;5102692;27;20361;-61
2024/01/06 08:59:51;;;;;;;;;;;;;;;6.53;66.85;97077.53;5096187;27;20022;-60
2024/01/06 09:02:39;;;;;;;;;;;;;;;6.44;67.00;97082.06;5096231;27;20035;-60
2024/01/06 09:05:31;;;;;;;;;;;;;;;6.16;68.01;97086.72;5093188;27;20425;-61
2024/01/06 09:08:20;;;;;;;;;;;;;;;5.77;69.41;97085.34;5103572;27;19947;-63
2024/01/06 09:11:09;;;;;;;;;;;;;;;5.89;69.66;97078.66;5107534;27;20309;-59
2024/01/06 09:13:57;;;;;;;;;;;;;;;6.01;69.06;97077.06;5097763;27;19927;-60
2024/01/06 09:16:45;;;;;;;;;;;;;;;6.22;68.67;97088.19;5100935;28;19924;-59
2024/01/06 09:19:34;;;;;;;;;;;;;;;6.45;67.76;97090.97;5100894;28;19928;-61
2024/01/06 09:22:23;;;;;;;;;;;;;;;6.52;67.20;97086.75;5090596;27;19927;-62
2024/01/06 09:25:13;;;;;;;;;;;;;;;6.43;67.13;97082.38;5101807;27;19920;-61
2024/01/06 09:28:01;;;;;;;;;;;;;;;6.52;66.63;97088.63;5097992;27;20291;-61
2024/01/06 09:30:54;;;;;;;;;;;;;;;6.47;67.06;97089.56;5093105;28;20068;-60
2024/01/06 09:33:42;;;;;;;;;;;;;;;6.53;66.69;97095.63;5103398;27;19931;-60
2024/01/06 09:36:32;;;;;;;;;;;;;;;6.60;66.70;97101.38;5091853;27;19924;-61
2024/01/06 09:39:20;;;;;;;;;;;;;;;6.51;66.62;97098.63;5095352;28;19920;-61
2024/01/06 09:42:11;;;;;;;;;;;;;;;6.50;66.57;97107.06;5100716;27;19923;-60
2024/01/06 09:45:00;;;;;;;;;;;;;;;6.67;66.36;97104.50;5110751;28;19927;-60
2024/01/06 09:47:49;;;;;;;;;;;;;;;6.62;66.22;97107.31;5107379;28;19919;-61
2024/01/06 09:50:39;;;;;;;;;;;;;;;6.71;66.63;97108.19;5105728;28;19920;-60
2024/01/06 09:53:35;;;;;;;;;;;;;;;6.74;66.60;97115.66;5105110;28;19920;-60
2024/01/06 09:56:28;;;;;;;;;;;;;;;6.92;65.54;97115.78;5101766;28;19924;-60
2024/01/06 09:59:20;;;;;;;;;;;;;;;6.89;65.04;97116.41;5101264;28;19976;-60
2024/01/06 10:02:08;;;;;;;;;;;;;;;6.61;65.67;97116.50;5105458;28;19989;-61
2024/01/06 10:04:58;;;;;;;;;;;;;;;6.42;66.50;97113.16;5093698;28;19924;-62
2024/01/06 10:07:46;;;;;;;;;;;;;;;6.21;67.46;97124.38;5097535;28;19920;-61
2024/01/06 10:10:35;;;;;;;;;;;;;;;6.41;67.07;97122.34;5104656;28;20024;-60
2024/01/06 10:13:24;;;;;;;;;;;;;;;6.55;66.61;97126.63;5107609;28;20015;-61
2024/01/06 10:16:14;;;;;;;;;;;;;;;6.59;66.33;97126.78;5122596;27;19919;-61
2024/01/06 10:19:02;;;;;;;;;;;;;;;6.15;67.34;97130.19;5110994;27;20009;-61
2024/01/06 10:21:50;;;;;;;;;;;;;;;6.03;67.89;97128.00;5103557;27;19928;-60
2024/01/06 10:24:39;;;;;;;;;;;;;;;6.33;67.44;97131.16;5105977;27;19923;-61
2024/01/06 10:27:29;;;;;;;;;;;;;;;6.56;66.71;97130.13;5102668;27;20401;-61
2024/01/06 10:30:18;;;;;;;;;;;;;;;6.62;65.89;97128.09;5094797;27;19925;-61
2024/01/06 10:33:10;;;;;;;;;;;;;;;6.64;66.20;97128.59;5112125;27;20383;-60
2024/01/06 10:36:01;;;;;;;;;;;;;;;6.50;65.69;97123.25;5096489;27;19919;-61
2024/01/06 10:38:49;;;;;;;;;;;;;;;6.71;65.56;97124.38;5111015;27;19931;-67
2024/01/06 10:41:38;;;;;;;;;;;;;;;6.74;65.67;97137.25;5107948;27;20058;-63
2024/01/06 10:44:29;;;;;;;;;;;;;;;6.82;65.47;97128.44;5112461;27;19984;-60
2024/01/06 10:47:17;;;;;;;;;;;;;;;6.81;65.56;97137.59;5108578;27;20283;-60
2024/01/06 10:50:08;;;;;;;;;;;;;;;6.81;64.81;97126.81;5099578;27;20383;-60
2024/01/06 10:52:57;;;;;;;;;;;;;;;6.76;64.98;97134.22;5107505;27;19920;-61
2024/01/06 10:55:45;;;;;;;;;;;;;;;6.66;65.48;97135.28;5104882;28;20289;-60
2024/01/06 10:58:36;;;;;;;;;;;;;;;6.66;65.83;97127.19;5104482;28;19924;-61
2024/01/06 11:01:25;;;;;;;;;;;;;;;6.83;65.26;97124.63;5110556;28;20244;-60
2024/01/06 11:04:16;;;;;;;;;;;;;;;6.93;64.95;97118.19;5109130;28;20321;-61
2024/01/06 11:07:07;;;;;;;;;;;;;;;7.11;64.64;97127.19;5109874;28;19920;-61
2024/01/06 11:10:00;;;;;;;;;;;;;;;7.07;64.13;97126.22;5105215;28;19942;-61
2024/01/06 11:13:05;;;;;;;;;;;;;;;6.68;64.96;97126.88;5104672;28;19919;-61
2024/01/06 11:15:54;;;;;;;;;;;;;;;7.03;64.47;97136.84;5098940;28;19942;-61
2024/01/06 11:18:42;;;;;;;;;;;;;;;7.19;63.16;97136.44;5096526;28;19920;-61
2024/01/06 11:21:34;;;;;;;;;;;;;;;7.10;63.01;97128.31;5099484;28;20700;-61
2024/01/06 11:24:24;;;;;;;;;;;;;;;7.28;62.86;97119.19;5097556;28;20019;-61
2024/01/06 11:27:13;;;;;;;;;;;;;;;7.19;62.75;97126.47;5108213;28;19928;-61
2024/01/06 11:30:05;;;;;;;;;;;;;;;7.18;62.63;97135.66;5097347;28;20039;-61
2024/01/06 11:32:53;;;;;;;;;;;;;;;7.46;61.86;97125.50;5103632;28;19969;-62
2024/01/06 11:35:42;;;;;;;;;;;;;;;7.54;61.98;97123.94;5101999;28;20008;-61
2024/01/06 11:38:33;;;;;;;;;;;;;;;7.66;61.96;97121.47;5106850;28;19965;-59
2024/01/06 11:41:37;;;;;;;;;;;;;;;7.82;61.09;97121.84;5107931;28;19924;-59
2024/01/06 11:44:28;;;;;;;;;;;;;;;7.60;61.86;97114.59;5104334;28;19961;-62
2024/01/06 11:47:17;;;;;;;;;;;;;;;7.70;61.94;97114.31;5099696;28;20033;-60
2024/01/06 11:50:06;;;;;;;;;;;;;;;7.38;62.96;97107.34;5102124;28;19920;-62
2024/01/06 11:53:00;;;;;;;;;;;;;;;7.60;62.20;97103.78;5097743;27;19973;-60
2024/01/06 11:55:49;;;;;;;;;;;;;;;7.63;61.97;97108.59;5104484;27;19919;-60
2024/01/06 11:58:40;;;;;;;;;;;;;;;7.61;61.59;97105.38;5106478;27;19993;-60
2024/01/06 12:01:29;;;;;;;;;;;;;;;7.56;61.87;97103.63;5106429;27;20280;-60
2024/01/06 12:04:18;;;;;;;;;;;;;;;7.66;61.94;97099.81;5108871;27;19923;-60
2024/01/06 12:07:07;;;;;;;;;;;;;;;7.61;62.28;97099.97;5108728;27;20052;-60
2024/01/06 12:10:01;;;;;;;;;;;;;;;7.51;62.06;97089.41;5104797;27;19927;-60
2024/01/06 12:12:58;;;;;;;;;;;;;;;7.21;62.33;97086.44;5111601;27;19923;-60
2024/01/06 12:15:46;;;;;;;;;;;;;;;7.16;62.78;97091.16;5092067;27;19953;-62
2024/01/06 12:18:36;;;;;;;;;;;;;;;7.15;62.83;97084.16;5109576;28;20361;-59
2024/01/06 12:21:25;;;;;;;;;;;;;;;6.93;62.87;97079.59;5098849;28;19964;-61
2024/01/06 12:24:13;;;;;;;;;;;;;;;6.98;62.82;97084.88;5102420;27;19959;-61
2024/01/06 12:27:02;;;;;;;;;;;;;;;6.92;62.99;97089.56;5100641;27;20023;-61
2024/01/06 12:29:51;;;;;;;;;;;;;;;6.91;62.57;97087.97;5106135;27;19924;-61
2024/01/06 12:32:40;;;;;;;;;;;;;;;7.12;62.93;97084.78;5087681;28;20309;-62
2024/01/06 12:35:29;;;;;;;;;;;;;;;7.17;62.32;97079.25;5080265;28;19926;-61
2024/01/06 12:38:18;;;;;;;;;;;;;;;7.16;61.92;97083.84;5077988;28;19927;-61
2024/01/06 12:41:07;;;;;;;;;;;;;;;7.18;62.18;97081.63;5084971;28;19927;-62
2024/01/06 12:43:55;;;;;;;;;;;;;;;7.25;62.25;97075.81;5092621;28;20002;-61
2024/01/06 12:46:45;;;;;;;;;;;;;;;7.34;61.80;97074.72;5096315;28;19931;-61
2024/01/06 12:49:33;;;;;;;;;;;;;;;7.41;61.95;97079.72;5089897;28;19920;-61
2024/01/06 12:52:27;;;;;;;;;;;;;;;7.52;61.64;97074.81;5093332;28;19920;-61
2024/01/06 12:55:15;;;;;;;;;;;;;;;7.68;61.19;97073.28;5081145;28;20416;-61
2024/01/06 12:58:03;;;;;;;;;;;;;;;7.79;61.26;97073.81;5089676;28;19926;-62
2024/01/06 13:00:52;;;;;;;;;;;;;;;7.58;61.53;97077.06;5087822;28;20284;-61
2024/01/06 13:03:40;;;;;;;;;;;;;;;7.60;61.41;97071.34;5079224;28;19924;-61
2024/01/06 13:06:30;;;;;;;;;;;;;;;7.35;61.31;97078.25;5099308;27;19943;-61
2024/01/06 13:09:21;;;;;;;;;;;;;;;7.32;62.32;97076.16;5113374;27;20360;-62
2024/01/06 13:12:09;;;;;;;;;;;;;;;7.19;62.23;97083.25;5109741;27;19926;-65
2024/01/06 13:14:58;;;;;;;;;;;;;;;6.88;62.50;97091.31;5107556;27;19919;-60
2024/01/06 13:17:48;;;;;;;;;;;;;;;7.00;63.63;97082.66;5123419;27;20271;-56
2024/01/06 13:20:40;;;;;;;;;;;;;;;7.11;63.49;97091.28;5112164;27;20033;-56
2024/01/06 13:23:28;;;;;;;;;;;;;;;7.13;64.23;97091.78;5100749;27;19930;-56
2024/01/06 13:26:21;;;;;;;;;;;;;;;7.08;64.39;97100.78;5099718;28;19920;-56
2024/01/06 13:29:09;;;;;;;;;;;;;;;7.02;63.44;97092.03;5113369;27;19942;-57
2024/01/06 13:31:59;;;;;;;;;;;;;;;6.95;63.80;97098.97;5108643;27;20377;-56
2024/01/06 13:34:47;;;;;;;;;;;;;;;7.18;62.67;97102.44;5099393;28;19928;-56
2024/01/06 13:37:35;;;;;;;;;;;;;;;6.97;63.56;97112.94;5096656;28;19932;-57
2024/01/06 13:40:24;;;;;;;;;;;;;;;6.68;65.05;97107.97;5101926;28;19926;-56
2024/01/06 13:43:15;;;;;;;;;;;;;;;6.80;64.85;97114.41;5088069;28;20019;-57
2024/01/06 13:46:03;;;;;;;;;;;;;;;6.73;65.29;97116.75;5097745;28;19920;-56
2024/01/06 13:48:51;;;;;;;;;;;;;;;6.59;64.53;97113.28;5109791;28;20339;-56
2024/01/06 13:51:40;;;;;;;;;;;;;;;6.64;64.47;97123.19;5106304;28;19927;-57
2024/01/06 13:54:29;;;;;;;;;;;;;;;6.46;64.73;97117.63;5108454;28;19920;-56
2024/01/06 13:57:17;;;;;;;;;;;;;;;6.71;64.98;97121.69;5097666;28;19927;-57
2024/01/06 14:00:07;;;;;;;;;;;;;;;6.63;65.60;97119.69;5097699;28;20275;-56
2024/01/06 14:02:58;;;;;;;;;;;;;;;6.68;65.62;97119.56;5097872;28;19920;-56
2024/01/06 14:05:46;;;;;;;;;;;;;;;6.53;65.62;97123.41;5097425;28;20002;-57
2024/01/06 14:08:34;;;;;;;;;;;;;;;6.49;65.77;97135.09;5098386;28;19926;-56
2024/01/06 14:11:22;;;;;;;;;;;;;;;6.67;65.65;97136.09;5098039;28;19932;-56
2024/01/06 14:14:10;;;;;;;;;;;;;;;6.47;66.13;97131.94;5114586;28;19924;-57
2024/01/06 14:17:00;;;;;;;;;;;;;;;6.63;65.88;97125.09;5109190;28;19959;-57
2024/01/06 14:19:48;;;;;;;;;;;;;;;6.62;66.94;97128.09;5114299;28;19930;-57
2024/01/06 14:22:36;;;;;;;;;;;;;;;6.78;65.38;97121.25;5098385;27;19920;-57
2024/01/06 14:25:25;;;;;;;;;;;;;;;6.58;66.81;97127.91;5104899;28;20057;-57
2024/01/06 14:28:14;;;;;;;;;;;;;;;6.62;65.60;97122.69;5108754;27;20019;-57
2024/01/06 14:31:01;;;;;;;;;;;;;;;6.73;65.27;97119.47;5113074;27;20810;-58
2024/01/06 14:33:51;;;;;;;;;;;;;;;6.85;64.31;97124.31;5105246;27;19920;-56
2024/01/06 14:36:40;;;;;;;;;;;;;;;6.59;64.54;97123.28;5105447;27;19927;-56
2024/01/06 14:39:29;;;;;;;;;;;;;;;6.35;65.33;97128.97;5105815;27;19943;-58
2024/01/06 14:42:18;;;;;;;;;;;;;;;6.51;65.37;97132.94;5112413;27;19920;-58
2024/01/06 14:45:08;;;;;;;;;;;;;;;6.46;65.27;97124.94;5115532;27;19928;-56
2024/01/06 14:47:56;;;;;;;;;;;;;;;6.64;65.33;97131.28;5110581;27;19927;-59
2024/01/06 14:50:45;;;;;;;;;;;;;;;6.97;64.29;97131.84;5118369;27;20385;-57